createdAt,value
2018-08-22T00:00:20.709Z,1.77
2018-08-22T00:02:55.129Z,1.60
2018-08-22T00:05:29.523Z,1.53
2018-08-22T00:08:03.702Z,1.83
2018-08-22T00:10:37.895Z,1.70
2018-08-22T00:13:12.203Z,1.73
2018-08-22T00:15:46.477Z,1.40
2018-08-22T00:18:20.814Z,1.70
2018-08-22T00:20:55.242Z,1.60
2018-08-22T00:23:29.421Z,1.73
2018-08-22T00:26:03.837Z,1.93
2018-08-22T00:28:38.071Z,1.90
2018-08-22T00:31:12.481Z,1.90
2018-08-22T00:33:46.803Z,1.60
2018-08-22T00:36:21.377Z,1.70
2018-08-22T00:38:55.638Z,1.57
2018-08-22T00:41:30.010Z,1.87
2018-08-22T00:44:04.338Z,1.70
2018-08-22T00:46:38.645Z,1.50
2018-08-22T00:49:12.866Z,1.90
2018-08-22T00:51:47.256Z,1.70
2018-08-22T00:54:21.541Z,1.70
2018-08-22T00:56:55.985Z,1.87
2018-08-22T00:59:30.103Z,1.67
2018-08-22T01:02:04.254Z,1.50
2018-08-22T01:04:38.401Z,1.60
2018-08-22T01:07:12.758Z,1.77
2018-08-22T01:09:47.041Z,1.77
2018-08-22T01:12:21.350Z,1.80
2018-08-22T01:14:55.754Z,1.67
2018-08-22T01:17:30.074Z,1.80
2018-08-22T01:20:04.722Z,1.50
2018-08-22T01:22:39.101Z,1.60
2018-08-22T01:25:13.389Z,1.70
2018-08-22T01:27:47.737Z,2.00
2018-08-22T01:30:22.044Z,1.87
2018-08-22T01:32:56.219Z,1.53
2018-08-22T01:35:30.498Z,1.60
2018-08-22T01:38:05.035Z,1.63
2018-08-22T01:40:39.212Z,1.60
2018-08-22T01:43:13.461Z,1.63
2018-08-22T01:45:47.805Z,1.93
2018-08-22T01:48:22.372Z,1.53
2018-08-22T01:50:56.656Z,1.10
2018-08-22T01:53:31.060Z,1.37
2018-08-22T01:56:05.622Z,1.80
2018-08-22T01:58:39.832Z,1.43
2018-08-22T02:01:14.225Z,1.80
2018-08-22T02:03:48.462Z,1.70
2018-08-22T02:06:22.663Z,1.50
2018-08-22T02:08:56.937Z,1.60
2018-08-22T02:11:31.237Z,1.70
2018-08-22T02:14:05.849Z,1.43
2018-08-22T02:16:40.018Z,1.40
2018-08-22T02:19:14.229Z,1.40
2018-08-22T02:21:48.640Z,1.50
2018-08-22T02:24:22.997Z,1.30
2018-08-22T02:26:57.128Z,1.30
2018-08-22T02:29:31.568Z,1.40
2018-08-22T02:32:06.535Z,1.60
2018-08-22T02:34:40.657Z,1.43
2018-08-22T02:37:15.030Z,1.40
2018-08-22T02:39:49.375Z,1.47
2018-08-22T02:42:23.745Z,1.80
2018-08-22T02:44:57.959Z,1.50
2018-08-22T02:47:32.313Z,1.60
2018-08-22T02:50:06.705Z,1.30
2018-08-22T02:52:40.859Z,1.43
2018-08-22T02:55:15.220Z,1.53
2018-08-22T02:57:49.617Z,1.50
2018-08-22T03:00:23.954Z,1.47
2018-08-22T03:02:58.307Z,1.70
2018-08-22T03:06:36.778Z,1.30
2018-08-22T03:09:11.062Z,1.37
2018-08-22T03:11:45.221Z,1.33
2018-08-22T03:14:19.382Z,1.63
2018-08-22T03:16:53.693Z,1.33
2018-08-22T03:19:28.080Z,1.40
2018-08-22T03:22:02.473Z,1.60
2018-08-22T03:24:36.788Z,1.60
2018-08-22T03:27:11.194Z,1.50
2018-08-22T03:29:45.420Z,1.43
2018-08-22T03:32:19.572Z,1.60
2018-08-22T03:34:53.879Z,1.40
2018-08-22T03:37:28.077Z,1.60
2018-08-22T03:40:02.447Z,1.70
2018-08-22T03:42:36.798Z,1.50
2018-08-22T03:45:10.971Z,1.70
2018-08-22T03:47:45.472Z,1.43
2018-08-22T03:50:19.851Z,1.50
2018-08-22T03:52:54.075Z,1.60
2018-08-22T03:55:28.408Z,1.70
2018-08-22T03:58:02.690Z,1.40
2018-08-22T04:00:36.971Z,1.53
2018-08-22T04:03:11.333Z,1.60
2018-08-22T04:05:45.542Z,1.65
2018-08-22T04:08:19.867Z,1.40
2018-08-22T04:10:54.037Z,1.63
2018-08-22T04:13:28.229Z,1.30
2018-08-22T04:16:02.611Z,1.37
2018-08-22T04:18:37.003Z,1.70
2018-08-22T04:21:11.233Z,1.63
2018-08-22T04:23:45.655Z,1.70
2018-08-22T04:26:20.053Z,1.40
2018-08-22T04:28:54.241Z,1.50
2018-08-22T04:31:28.680Z,1.60
2018-08-22T04:34:03.094Z,1.50
2018-08-22T04:36:37.342Z,1.43
2018-08-22T04:39:11.779Z,1.60
2018-08-22T04:41:46.048Z,1.50
2018-08-22T04:44:20.488Z,1.57
2018-08-22T04:46:54.733Z,1.60
2018-08-22T04:49:28.963Z,1.97
2018-08-22T04:52:03.299Z,1.40
2018-08-22T04:54:37.750Z,1.87
2018-08-22T04:57:12.140Z,1.70
2018-08-22T04:59:46.509Z,1.80
2018-08-22T05:02:20.787Z,1.70
2018-08-22T05:04:55.102Z,1.90
2018-08-22T05:07:29.870Z,2.07
2018-08-22T05:10:04.093Z,1.63
2018-08-22T05:12:38.309Z,1.70
2018-08-22T05:15:12.690Z,1.67
2018-08-22T05:17:46.970Z,1.70
2018-08-22T05:20:21.137Z,1.97
2018-08-22T05:22:55.413Z,1.90
2018-08-22T05:25:29.790Z,1.80
2018-08-22T05:28:04.015Z,2.37
2018-08-22T05:30:38.301Z,1.60
2018-08-22T05:33:12.686Z,1.47
2018-08-22T05:35:47.260Z,1.53
2018-08-22T05:38:21.445Z,1.50
2018-08-22T05:40:55.749Z,1.43
2018-08-22T05:43:30.169Z,1.80
2018-08-22T05:46:04.458Z,1.90
2018-08-22T05:48:38.913Z,1.70
2018-08-22T05:51:13.219Z,1.70
2018-08-22T05:53:47.576Z,1.90
2018-08-22T05:56:21.774Z,1.60
2018-08-22T05:58:56.169Z,1.67
2018-08-22T06:01:30.647Z,1.80
2018-08-22T06:04:04.873Z,1.70
2018-08-22T06:06:39.015Z,1.60
2018-08-22T06:09:13.764Z,1.73
2018-08-22T06:11:47.859Z,1.97
2018-08-22T06:14:22.159Z,1.73
2018-08-22T06:16:56.419Z,1.80
2018-08-22T06:19:30.809Z,1.90
2018-08-22T06:22:04.989Z,1.70
2018-08-22T06:24:39.290Z,2.00
2018-08-22T06:27:13.591Z,1.30
2018-08-22T06:29:47.881Z,1.60
2018-08-22T06:32:22.054Z,1.90
2018-08-22T06:34:56.169Z,2.10
2018-08-22T06:37:30.328Z,1.90
2018-08-22T06:40:05.330Z,2.30
2018-08-22T06:42:39.538Z,1.90
2018-08-22T06:45:13.789Z,2.20
2018-08-22T06:47:48.191Z,1.70
2018-08-22T06:50:22.500Z,2.07
2018-08-22T06:52:56.714Z,2.10
2018-08-22T06:55:30.939Z,2.27
2018-08-22T06:58:05.295Z,2.00
2018-08-22T07:00:39.580Z,1.67
2018-08-22T07:03:13.919Z,1.40
2018-08-22T07:05:48.215Z,1.63
2018-08-22T07:08:22.505Z,1.57
2018-08-22T07:10:56.854Z,1.80
2018-08-22T07:13:31.130Z,1.80
2018-08-22T07:16:05.304Z,1.73
2018-08-22T07:18:39.593Z,1.70
2018-08-22T07:21:14.001Z,1.83
2018-08-22T07:23:48.326Z,1.60
2018-08-22T07:26:22.651Z,1.60
2018-08-22T07:28:56.826Z,2.00
2018-08-22T07:31:31.207Z,1.70
2018-08-22T07:34:05.676Z,2.57
2018-08-22T07:36:39.891Z,1.90
2018-08-22T07:39:14.093Z,1.90
2018-08-22T07:41:48.404Z,1.97
2018-08-22T07:44:22.697Z,1.83
2018-08-22T07:46:56.889Z,1.70
2018-08-22T07:49:31.175Z,1.80
2018-08-22T07:52:05.493Z,2.30
2018-08-22T07:54:44.465Z,1.83
2018-08-22T07:57:21.815Z,1.90
2018-08-22T07:59:55.989Z,2.00
2018-08-22T08:02:30.294Z,2.10
2018-08-22T08:05:05.030Z,1.80
2018-08-22T08:07:39.223Z,1.80
2018-08-22T08:10:19.050Z,1.70
2018-08-22T08:12:53.173Z,1.87
2018-08-22T08:15:27.669Z,1.50
2018-08-22T08:18:01.874Z,1.90
2018-08-22T08:20:36.035Z,1.87
2018-08-22T08:23:10.374Z,2.00
2018-08-22T08:25:44.678Z,1.90
2018-08-22T08:28:18.894Z,1.67
2018-08-22T08:30:53.270Z,1.90
2018-08-22T08:33:27.669Z,1.77
2018-08-22T08:36:02.002Z,1.63
2018-08-22T08:38:36.112Z,1.70
2018-08-22T08:41:10.652Z,1.83
2018-08-22T08:43:44.807Z,1.67
2018-08-22T08:46:19.138Z,1.70
2018-08-22T08:48:53.430Z,1.73
2018-08-22T08:51:27.722Z,2.00
2018-08-22T08:54:01.978Z,1.90
2018-08-22T08:56:36.413Z,1.83
2018-08-22T08:59:10.767Z,1.73
2018-08-22T09:01:45.031Z,1.80
2018-08-22T09:04:19.290Z,1.90
2018-08-22T09:06:53.463Z,1.93
2018-08-22T09:09:27.854Z,1.87
2018-08-22T09:12:02.289Z,1.83
2018-08-22T09:14:37.270Z,1.77
2018-08-22T09:17:11.571Z,1.63
2018-08-22T09:19:45.854Z,1.67
2018-08-22T09:22:20.299Z,1.90
2018-08-22T09:24:54.467Z,1.97
2018-08-22T09:27:28.786Z,1.73
2018-08-22T09:30:02.972Z,1.70
2018-08-22T09:32:37.411Z,1.87
2018-08-22T09:35:11.679Z,1.70
2018-08-22T09:37:45.853Z,1.70
2018-08-22T09:40:20.016Z,1.77
2018-08-22T09:42:54.417Z,1.90
2018-08-22T09:45:28.743Z,2.00
2018-08-22T09:48:03.029Z,1.87
2018-08-22T09:50:37.377Z,2.37
2018-08-22T09:53:11.799Z,1.90
2018-08-22T09:55:46.109Z,2.00
2018-08-22T09:58:20.526Z,2.07
2018-08-22T10:01:00.127Z,1.60
2018-08-22T10:03:50.403Z,1.83
2018-08-22T10:06:30.428Z,2.00
2018-08-22T10:09:20.758Z,2.23
2018-08-22T10:11:55.067Z,2.00
2018-08-22T10:14:29.462Z,3.50
2018-08-22T10:17:03.871Z,1.97
2018-08-22T10:19:38.196Z,1.67
2018-08-22T10:22:12.611Z,1.93
2018-08-22T10:24:46.890Z,2.23
2018-08-22T10:27:21.112Z,1.73
2018-08-22T10:29:55.214Z,2.13
2018-08-22T10:32:29.422Z,2.17
2018-08-22T10:35:03.823Z,1.90
2018-08-22T10:37:38.094Z,2.00
2018-08-22T10:40:12.379Z,1.90
2018-08-22T10:42:46.669Z,2.23
2018-08-22T10:45:21.086Z,1.93
2018-08-22T10:47:55.261Z,2.30
2018-08-22T10:50:29.608Z,2.30
2018-08-22T10:53:04.010Z,2.30
2018-08-22T10:55:38.415Z,2.17
2018-08-22T10:58:12.866Z,2.50
2018-08-22T11:00:47.146Z,2.47
2018-08-22T11:03:21.331Z,2.80
2018-08-22T11:05:55.668Z,2.23
2018-08-22T11:08:31.042Z,2.60
2018-08-22T11:11:05.313Z,2.67
2018-08-22T11:13:39.602Z,2.70
2018-08-22T11:16:13.899Z,2.73
2018-08-22T11:18:48.221Z,3.23
2018-08-22T11:21:33.981Z,3.00
2018-08-22T11:24:19.770Z,2.83
2018-08-22T11:27:05.613Z,2.57
2018-08-22T11:29:51.466Z,2.83
2018-08-22T11:32:37.230Z,2.90
2018-08-22T11:35:10.606Z,3.73
2018-08-22T11:37:44.930Z,4.00
2018-08-22T11:40:19.201Z,3.70
2018-08-22T11:42:53.639Z,3.60
2018-08-22T11:45:27.996Z,3.17
2018-08-22T11:48:02.186Z,3.30
2018-08-22T11:50:36.515Z,3.40
2018-08-22T11:53:10.965Z,3.10
2018-08-22T11:55:45.209Z,3.53
2018-08-22T11:58:19.513Z,3.93
2018-08-22T12:00:53.891Z,3.30
2018-08-22T12:03:28.186Z,3.40
2018-08-22T12:06:02.829Z,3.67
2018-08-22T12:08:37.067Z,3.70
2018-08-22T12:11:11.434Z,3.33
2018-08-22T12:13:45.662Z,3.60
2018-08-22T12:16:20.000Z,4.10
2018-08-22T12:18:54.271Z,3.30
2018-08-22T12:21:28.672Z,3.47
2018-08-22T12:24:03.361Z,4.10
2018-08-22T12:26:37.638Z,3.83
2018-08-22T12:29:12.403Z,4.37
2018-08-22T12:31:46.577Z,3.77
2018-08-22T12:34:20.926Z,3.93
2018-08-22T12:36:55.223Z,3.43
2018-08-22T12:39:29.621Z,3.80
2018-08-22T12:42:04.035Z,3.47
2018-08-22T12:44:38.463Z,3.33
2018-08-22T12:47:12.639Z,4.87
2018-08-22T12:49:47.012Z,3.87
2018-08-22T12:52:21.317Z,4.07
2018-08-22T12:54:55.675Z,3.67
2018-08-22T12:57:29.943Z,3.97
2018-08-22T13:00:04.565Z,4.00
2018-08-22T13:02:38.722Z,3.87
2018-08-22T13:05:13.185Z,4.03
2018-08-22T13:07:47.568Z,4.30
2018-08-22T13:10:21.814Z,4.63
2018-08-22T13:12:55.989Z,4.53
2018-08-22T13:15:30.315Z,3.63
2018-08-22T13:18:04.983Z,4.10
2018-08-22T13:20:39.155Z,4.27
2018-08-22T13:23:13.370Z,4.00
2018-08-22T13:25:47.576Z,4.33
2018-08-22T13:28:21.818Z,4.20
2018-08-22T13:30:55.973Z,4.47
2018-08-22T13:33:30.219Z,4.20
2018-08-22T13:36:04.690Z,3.87
2018-08-22T13:38:39.005Z,4.00
2018-08-22T13:41:13.325Z,3.93
2018-08-22T13:43:47.497Z,4.40
2018-08-22T13:46:21.834Z,4.20
2018-08-22T13:48:56.078Z,4.00
2018-08-22T13:51:30.345Z,4.17
2018-08-22T13:54:04.562Z,4.47
2018-08-22T13:56:39.018Z,4.10
2018-08-22T13:59:13.322Z,4.17
2018-08-22T14:01:47.512Z,4.40
2018-08-22T14:04:21.846Z,4.47
2018-08-22T14:06:56.134Z,3.63
2018-08-22T14:09:30.488Z,4.20
2018-08-22T14:12:04.777Z,4.67
2018-08-22T14:14:38.931Z,4.47
2018-08-22T14:17:13.197Z,4.63
2018-08-22T14:19:47.582Z,4.60
2018-08-22T14:22:21.943Z,4.03
2018-08-22T14:24:56.302Z,4.33
2018-08-22T14:27:30.599Z,5.00
2018-08-22T14:30:05.897Z,4.90
2018-08-22T14:32:40.163Z,4.60
2018-08-22T14:35:14.578Z,4.63
2018-08-22T14:37:48.926Z,4.57
2018-08-22T14:40:23.178Z,4.23
2018-08-22T14:42:57.406Z,4.40
2018-08-22T14:45:31.710Z,4.23
2018-08-22T14:48:05.958Z,4.10
2018-08-22T14:50:40.334Z,4.50
2018-08-22T14:53:14.601Z,4.47
2018-08-22T14:55:48.895Z,4.40
2018-08-22T14:58:23.135Z,4.57
2018-08-22T15:00:57.323Z,4.53
2018-08-22T15:03:31.707Z,4.90
2018-08-22T15:06:05.854Z,4.83
2018-08-22T15:08:40.119Z,4.70
2018-08-22T15:11:14.290Z,4.60
2018-08-22T15:13:48.703Z,4.17
2018-08-22T15:16:23.066Z,4.37
2018-08-22T15:18:57.311Z,4.30
2018-08-22T15:21:31.755Z,4.80
2018-08-22T15:24:05.910Z,4.87
2018-08-22T15:26:40.315Z,4.27
2018-08-22T15:29:14.667Z,4.63
2018-08-22T15:31:48.831Z,4.20
2018-08-22T15:34:23.551Z,4.80
2018-08-22T15:36:57.837Z,4.53
2018-08-22T15:39:32.199Z,4.57
2018-08-22T15:42:06.374Z,4.83
2018-08-22T15:44:40.628Z,4.80
2018-08-22T15:47:15.026Z,4.73
2018-08-22T15:49:49.227Z,4.70
2018-08-22T15:52:23.530Z,4.77
2018-08-22T15:55:08.134Z,4.27
2018-08-22T15:57:56.110Z,4.77
2018-08-22T16:00:36.770Z,5.17
2018-08-22T16:03:11.297Z,4.53
2018-08-22T16:05:46.335Z,4.40
2018-08-22T16:08:25.063Z,4.67
2018-08-22T16:10:59.199Z,4.70
2018-08-22T16:13:33.399Z,5.03
2018-08-22T16:16:07.575Z,4.43
2018-08-22T16:18:41.885Z,5.00
2018-08-22T16:21:16.124Z,4.43
2018-08-22T16:23:50.451Z,4.20
2018-08-22T16:26:24.708Z,5.80
2018-08-22T16:29:00.670Z,4.50
2018-08-22T16:31:39.190Z,4.07
2018-08-22T16:34:13.874Z,4.37
2018-08-22T16:36:48.150Z,4.50
2018-08-22T16:39:37.874Z,4.50
2018-08-22T16:42:12.397Z,4.50
2018-08-22T16:44:46.577Z,4.57
2018-08-22T16:47:25.102Z,4.77
2018-08-22T16:49:59.379Z,4.17
2018-08-22T16:52:33.856Z,4.50
2018-08-22T16:55:20.460Z,4.70
2018-08-22T16:57:54.754Z,4.40
2018-08-22T17:00:36.514Z,4.50
2018-08-22T17:03:10.751Z,4.57
2018-08-22T17:05:45.174Z,4.30
2018-08-22T17:08:19.598Z,4.67
2018-08-22T17:10:56.287Z,4.40
2018-08-22T17:13:47.733Z,4.60
2018-08-22T17:16:22.948Z,4.60
2018-08-22T17:18:57.099Z,4.97
2018-08-22T17:21:31.278Z,3.57
2018-08-22T17:24:05.854Z,4.57
2018-08-22T17:26:40.189Z,4.23
2018-08-22T17:29:14.626Z,5.17
2018-08-22T17:31:54.427Z,4.50
2018-08-22T17:34:28.732Z,5.50
2018-08-22T17:37:06.077Z,4.10
2018-08-22T17:39:40.339Z,4.10
2018-08-22T17:42:14.778Z,4.57
2018-08-22T17:44:49.120Z,4.47
2018-08-22T17:47:23.365Z,4.40
2018-08-22T17:50:05.934Z,4.50
2018-08-22T17:52:40.266Z,4.43
2018-08-22T17:55:14.603Z,4.17
2018-08-22T17:57:49.491Z,4.33
2018-08-22T18:00:23.663Z,4.53
2018-08-22T18:02:57.889Z,4.53
2018-08-22T18:05:33.745Z,4.80
2018-08-22T18:08:08.964Z,4.93
2018-08-22T18:10:43.208Z,3.97
2018-08-22T18:13:17.515Z,4.73
2018-08-22T18:15:51.787Z,4.43
2018-08-22T18:18:26.223Z,4.40
2018-08-22T18:21:01.058Z,4.40
2018-08-22T18:23:37.686Z,4.20
2018-08-22T18:26:12.018Z,4.57
2018-08-22T18:28:46.270Z,4.40
2018-08-22T18:31:20.559Z,4.70
2018-08-22T18:33:58.551Z,3.73
2018-08-22T18:36:32.910Z,4.30
2018-08-22T18:39:09.780Z,4.50
2018-08-22T18:41:44.109Z,4.50
2018-08-22T18:44:18.530Z,4.67
2018-08-22T18:46:52.854Z,4.77
2018-08-22T18:49:27.088Z,4.40
2018-08-22T18:52:01.212Z,5.20
2018-08-22T18:54:35.514Z,5.43
2018-08-22T18:57:09.762Z,5.03
2018-08-22T18:59:43.954Z,4.90
2018-08-22T19:02:18.155Z,4.63
2018-08-22T19:04:52.298Z,5.03
2018-08-22T19:07:26.601Z,4.97
2018-08-22T19:10:00.810Z,4.67
2018-08-22T19:12:35.239Z,3.87
2018-08-22T19:15:09.502Z,4.60
2018-08-22T19:17:43.825Z,4.70
2018-08-22T19:20:18.140Z,5.00
2018-08-22T19:22:52.394Z,4.50
2018-08-22T19:25:26.803Z,4.80
2018-08-22T19:28:01.742Z,4.70
2018-08-22T19:30:37.810Z,5.10
2018-08-22T19:33:14.273Z,4.33
2018-08-22T19:35:48.755Z,4.90
2018-08-22T19:38:24.223Z,5.07
2018-08-22T19:41:02.914Z,5.13
2018-08-22T19:43:37.209Z,5.23
2018-08-22T19:46:11.598Z,4.97
2018-08-22T19:48:45.882Z,5.13
2018-08-22T19:51:20.529Z,5.23
2018-08-22T19:54:02.310Z,5.30
2018-08-22T19:56:36.595Z,4.67
2018-08-22T19:59:10.735Z,5.07
2018-08-22T20:01:44.923Z,4.80
2018-08-22T20:04:19.208Z,5.20
2018-08-22T20:06:53.460Z,5.13
2018-08-22T20:09:27.853Z,4.97
2018-08-22T20:12:02.141Z,4.53
2018-08-22T20:14:46.603Z,5.07
2018-08-22T20:17:26.215Z,5.57
2018-08-22T20:20:00.413Z,5.00
2018-08-22T20:22:38.659Z,4.73
2018-08-22T20:25:13.270Z,5.13
2018-08-22T20:27:47.470Z,5.00
2018-08-22T20:30:22.314Z,4.87
2018-08-22T20:33:01.948Z,4.90
2018-08-22T20:36:01.326Z,5.00
2018-08-22T20:38:56.902Z,6.37
2018-08-22T20:41:31.143Z,5.77
2018-08-22T20:44:15.054Z,6.23
2018-08-22T20:46:49.490Z,6.00
2018-08-22T20:49:23.795Z,6.50
2018-08-22T20:51:58.171Z,6.17
2018-08-22T20:54:32.311Z,6.37
2018-08-22T20:57:06.718Z,5.90
2018-08-22T20:59:41.014Z,6.30
2018-08-22T21:02:16.330Z,6.37
2018-08-22T21:04:50.579Z,5.83
2018-08-22T21:07:26.373Z,5.97
2018-08-22T21:10:00.617Z,5.83
2018-08-22T21:12:34.918Z,6.17
2018-08-22T21:15:09.098Z,7.20
2018-08-22T21:17:43.414Z,6.80
2018-08-22T21:20:22.492Z,6.60
2018-08-22T21:22:57.311Z,7.03
2018-08-22T21:25:31.649Z,6.47
2018-08-22T21:28:05.891Z,6.97
2018-08-22T21:30:44.433Z,6.97
2018-08-22T21:33:18.770Z,6.80
2018-08-22T21:35:53.163Z,7.57
2018-08-22T21:38:27.530Z,7.93
2018-08-22T21:41:01.810Z,8.20
2018-08-22T21:43:36.119Z,9.13
2018-08-22T21:46:10.614Z,9.40
2018-08-22T21:48:44.887Z,9.40
2018-08-22T21:51:19.593Z,9.67
2018-08-22T21:53:53.927Z,10.13
2018-08-22T21:56:28.149Z,10.00
2018-08-22T21:59:02.462Z,9.60
2018-08-22T22:01:44.947Z,10.00
2018-08-22T22:04:26.418Z,10.63
2018-08-22T22:07:00.743Z,12.17
2018-08-22T22:09:35.498Z,11.50
2018-08-22T22:12:15.210Z,11.63
2018-08-22T22:14:49.436Z,12.83
2018-08-22T22:17:23.787Z,13.10
2018-08-22T22:19:58.037Z,13.13
2018-08-22T22:22:32.296Z,12.57
2018-08-22T22:25:06.941Z,13.63
2018-08-22T22:27:41.287Z,13.53
2018-08-22T22:30:15.568Z,14.43
2018-08-22T22:32:49.908Z,16.50
2018-08-22T22:35:29.529Z,15.50
2018-08-22T22:38:07.845Z,16.47
2018-08-22T22:40:42.075Z,16.57
2018-08-22T22:43:16.274Z,17.10
2018-08-22T22:45:51.182Z,18.03
2018-08-22T22:48:36.834Z,17.23
2018-08-22T22:51:11.302Z,18.47
2018-08-22T22:53:45.608Z,18.57
2018-08-22T22:56:19.863Z,18.83
2018-08-22T22:58:54.147Z,18.80
2018-08-22T23:01:28.418Z,18.67
2018-08-22T23:04:02.830Z,20.03
2018-08-22T23:06:37.271Z,20.20
2018-08-22T23:09:11.509Z,19.17
2018-08-22T23:11:45.890Z,19.90
2018-08-22T23:14:20.070Z,20.07
2018-08-22T23:16:54.272Z,19.87
2018-08-22T23:19:28.417Z,20.03
2018-08-22T23:22:02.750Z,20.27
2018-08-22T23:24:37.019Z,19.97
2018-08-22T23:27:11.249Z,19.30
2018-08-22T23:29:45.605Z,20.13
2018-08-22T23:32:19.781Z,19.93
2018-08-22T23:34:54.242Z,20.67
2018-08-22T23:37:28.499Z,21.90
2018-08-22T23:40:02.699Z,23.03
2018-08-22T23:42:36.958Z,22.13
2018-08-22T23:45:11.386Z,23.37
2018-08-22T23:47:45.541Z,22.93
2018-08-22T23:50:20.110Z,22.63
2018-08-22T23:52:55.450Z,23.33
2018-08-22T23:55:29.657Z,24.17
2018-08-22T23:58:03.924Z,23.97
